createdAt,value
2023-02-13T00:00:15.714Z,6.89
2023-02-13T00:02:46.041Z,6.91
2023-02-13T00:05:18.901Z,6.90
2023-02-13T00:07:49.260Z,6.90
2023-02-13T00:10:17.167Z,6.92
2023-02-13T00:12:45.873Z,6.91
2023-02-13T00:15:16.623Z,6.88
2023-02-13T00:17:49.825Z,6.90
2023-02-13T00:20:17.326Z,6.90
2023-02-13T00:22:44.857Z,6.88
2023-02-13T00:25:12.540Z,6.90
2023-02-13T00:27:40.118Z,6.90
2023-02-13T00:30:12.187Z,6.92
2023-02-13T00:32:40.316Z,6.89
2023-02-13T00:35:11.491Z,6.87
2023-02-13T00:37:39.898Z,6.90
2023-02-13T00:40:10.964Z,6.89
2023-02-13T00:42:41.930Z,6.87
2023-02-13T00:45:11.625Z,6.86
2023-02-13T00:47:38.921Z,6.86
2023-02-13T00:50:10.833Z,6.85
2023-02-13T00:52:39.219Z,6.85
2023-02-13T00:55:07.317Z,6.83
2023-02-13T00:57:42.081Z,6.84
2023-02-13T01:00:13.004Z,6.83
2023-02-13T01:02:48.042Z,6.82
2023-02-13T01:05:19.276Z,6.81
2023-02-13T01:07:47.879Z,6.80
2023-02-13T01:10:21.674Z,6.81
2023-02-13T01:12:50.485Z,6.80
2023-02-13T01:15:18.618Z,6.81
2023-02-13T01:17:47.554Z,6.82
2023-02-13T01:20:19.850Z,6.82
2023-02-13T01:22:51.105Z,6.81
2023-02-13T01:25:23.039Z,6.82
2023-02-13T01:27:53.554Z,6.81
2023-02-13T01:30:22.389Z,6.83
2023-02-13T01:32:52.843Z,6.81
2023-02-13T01:35:23.391Z,6.78
2023-02-13T01:37:58.243Z,6.78
2023-02-13T01:40:30.244Z,6.78
2023-02-13T01:43:03.622Z,6.77
2023-02-13T01:45:33.013Z,6.77
2023-02-13T01:48:08.121Z,6.75
2023-02-13T01:51:04.908Z,6.72
2023-02-13T01:53:56.477Z,6.72
2023-02-13T01:56:52.082Z,6.72
2023-02-13T01:59:41.893Z,6.68
2023-02-13T02:02:12.058Z,6.63
2023-02-13T02:04:46.835Z,6.65
2023-02-13T02:07:27.529Z,6.64
2023-02-13T02:10:15.734Z,6.65
2023-02-13T02:13:07.273Z,6.64
2023-02-13T02:15:41.506Z,6.60
2023-02-13T02:18:24.710Z,6.60
2023-02-13T02:21:10.847Z,6.60
2023-02-13T02:24:36.598Z,6.61
2023-02-13T02:27:18.844Z,6.61
2023-02-13T02:30:53.650Z,6.61
2023-02-13T02:33:53.633Z,6.59
2023-02-13T02:37:19.451Z,6.58
2023-02-13T02:40:24.660Z,6.59
2023-02-13T02:43:26.299Z,6.57
2023-02-13T02:46:33.375Z,6.56
2023-02-13T02:49:36.086Z,6.53
2023-02-13T02:52:15.430Z,6.54
2023-02-13T02:55:06.844Z,6.53
2023-02-13T02:58:45.554Z,6.51
2023-02-13T03:01:46.457Z,6.48
2023-02-13T03:04:55.447Z,6.42
2023-02-13T03:07:26.193Z,6.35
2023-02-13T03:10:25.317Z,6.28
2023-02-13T03:13:23.690Z,6.18
2023-02-13T03:16:19.332Z,6.06
2023-02-13T03:19:18.594Z,5.99
2023-02-13T03:22:21.525Z,5.89
2023-02-13T03:25:46.075Z,5.82
2023-02-13T03:29:32.905Z,5.73
2023-02-13T03:32:32.377Z,5.65
2023-02-13T03:36:04.689Z,5.56
2023-02-13T03:39:30.779Z,5.46
2023-02-13T03:43:14.038Z,5.42
2023-02-13T03:45:54.892Z,5.35
2023-02-13T03:48:53.712Z,5.30
2023-02-13T03:51:53.549Z,5.23
2023-02-13T03:55:00.947Z,5.17
2023-02-13T03:57:52.342Z,5.10
2023-02-13T04:00:22.255Z,5.05
2023-02-13T04:03:25.870Z,4.99
2023-02-13T04:06:13.869Z,4.94
2023-02-13T04:08:49.974Z,4.86
2023-02-13T04:11:37.411Z,4.88
2023-02-13T04:14:56.190Z,4.84
2023-02-13T04:17:58.284Z,4.81
2023-02-13T04:20:35.316Z,4.76
2023-02-13T04:23:13.524Z,4.74
2023-02-13T04:25:47.490Z,4.70
2023-02-13T04:28:17.629Z,4.67
2023-02-13T04:30:47.438Z,4.65
2023-02-13T04:33:20.463Z,4.60
2023-02-13T04:35:47.910Z,4.58
2023-02-13T04:38:17.016Z,4.56
2023-02-13T04:40:44.928Z,4.53
2023-02-13T04:43:27.685Z,4.49
2023-02-13T04:45:57.897Z,4.43
2023-02-13T04:48:26.922Z,4.40
2023-02-13T04:50:56.084Z,4.38
2023-02-13T04:53:24.649Z,4.34
2023-02-13T04:55:54.661Z,4.33
2023-02-13T04:58:24.203Z,4.31
2023-02-13T05:00:52.890Z,4.31
2023-02-13T05:03:22.019Z,4.27
2023-02-13T05:05:51.765Z,4.23
2023-02-13T05:08:35.315Z,4.23
2023-02-13T05:11:03.385Z,4.20
2023-02-13T05:13:32.571Z,4.19
2023-02-13T05:16:01.258Z,4.18
2023-02-13T05:18:28.954Z,4.14
2023-02-13T05:21:18.193Z,4.11
2023-02-13T05:23:45.612Z,4.09
2023-02-13T05:26:14.196Z,4.07
2023-02-13T05:29:12.597Z,4.02
2023-02-13T05:31:40.782Z,4.01
2023-02-13T05:34:10.896Z,4.00
2023-02-13T05:36:38.958Z,4.00
2023-02-13T05:39:07.704Z,3.98
2023-02-13T05:41:35.627Z,3.98
2023-02-13T05:44:03.626Z,3.94
2023-02-13T05:46:32.366Z,3.94
2023-02-13T05:49:02.686Z,3.89
2023-02-13T05:51:40.041Z,3.88
2023-02-13T05:54:08.168Z,3.88
2023-02-13T05:56:35.688Z,3.85
2023-02-13T05:59:05.862Z,3.83
2023-02-13T06:01:35.966Z,3.82
2023-02-13T06:04:09.599Z,3.81
2023-02-13T06:06:38.532Z,3.79
2023-02-13T06:09:07.358Z,3.77
2023-02-13T06:11:36.382Z,3.73
2023-02-13T06:14:18.236Z,3.73
2023-02-13T06:16:56.558Z,3.71
2023-02-13T06:19:25.141Z,3.69
2023-02-13T06:24:44.333Z,3.67
2023-02-13T06:27:11.573Z,3.64
2023-02-13T06:29:39.010Z,3.63
2023-02-13T06:32:10.583Z,3.62
2023-02-13T06:34:37.865Z,3.59
2023-02-13T06:37:21.437Z,3.57
2023-02-13T06:40:03.499Z,3.55
2023-02-13T06:42:32.422Z,3.54
2023-02-13T06:45:04.028Z,3.53
2023-02-13T06:47:34.286Z,3.50
2023-02-13T06:50:18.650Z,3.49
2023-02-13T06:52:51.765Z,3.47
2023-02-13T06:55:25.549Z,3.44
2023-02-13T06:57:59.565Z,3.44
2023-02-13T07:00:31.624Z,3.45
2023-02-13T07:03:06.987Z,3.45
2023-02-13T07:05:43.385Z,3.47
2023-02-13T07:08:13.483Z,3.43
2023-02-13T07:10:44.967Z,3.45
2023-02-13T07:13:15.772Z,3.44
2023-02-13T07:15:47.183Z,3.45
2023-02-13T07:18:30.887Z,3.45
2023-02-13T07:21:00.460Z,3.44
2023-02-13T07:23:29.734Z,3.48
2023-02-13T07:26:11.279Z,3.49
2023-02-13T07:28:43.900Z,3.51
2023-02-13T07:31:16.777Z,3.52
2023-02-13T07:33:56.308Z,3.53
2023-02-13T07:36:25.956Z,3.56
2023-02-13T07:38:57.552Z,3.55
2023-02-13T07:41:50.734Z,3.57
2023-02-13T07:44:20.937Z,3.58
2023-02-13T07:46:51.595Z,3.59
2023-02-13T07:49:19.025Z,3.62
2023-02-13T07:51:48.184Z,3.64
2023-02-13T07:54:20.010Z,3.67
2023-02-13T07:56:59.784Z,3.71
2023-02-13T07:59:31.290Z,3.75
2023-02-13T08:02:04.614Z,3.79
2023-02-13T08:04:37.302Z,3.83
2023-02-13T08:07:05.826Z,3.87
2023-02-13T08:09:56.107Z,3.91
2023-02-13T08:12:28.019Z,3.99
2023-02-13T08:15:03.375Z,4.05
2023-02-13T08:17:41.651Z,4.11
2023-02-13T08:20:10.831Z,4.18
2023-02-13T08:23:09.956Z,4.21
2023-02-13T08:28:30.797Z,4.37
2023-02-13T08:31:03.097Z,4.44
2023-02-13T08:33:36.599Z,4.54
2023-02-13T08:36:12.992Z,4.60
2023-02-13T08:38:50.737Z,4.64
2023-02-13T08:41:26.795Z,4.71
2023-02-13T08:46:43.818Z,4.88
2023-02-13T08:49:11.232Z,4.91
2023-02-13T08:52:16.380Z,4.96
2023-02-13T08:54:48.732Z,5.05
2023-02-13T08:57:17.222Z,5.07
2023-02-13T08:59:44.693Z,5.09
2023-02-13T09:05:28.241Z,5.21
2023-02-13T09:08:20.634Z,5.27
2023-02-13T09:11:20.023Z,5.32
2023-02-13T09:13:50.019Z,5.35
2023-02-13T09:16:39.903Z,5.39
2023-02-13T09:19:18.364Z,5.42
2023-02-13T09:21:53.696Z,5.46
2023-02-13T09:24:28.994Z,5.53
2023-02-13T09:26:57.995Z,5.55
2023-02-13T09:29:35.766Z,5.59
2023-02-13T09:32:07.823Z,5.60
2023-02-13T09:34:51.785Z,5.64
2023-02-13T09:37:23.356Z,5.70
2023-02-13T09:39:52.812Z,5.75
2023-02-13T09:42:39.405Z,5.83
2023-02-13T09:45:16.567Z,5.87
2023-02-13T09:47:57.360Z,5.93
2023-02-13T09:51:00.022Z,6.01
2023-02-13T09:53:36.582Z,6.05
2023-02-13T09:56:34.478Z,6.08
2023-02-13T09:59:48.799Z,6.15
2023-02-13T10:02:59.674Z,6.16
2023-02-13T10:05:55.446Z,6.20
2023-02-13T10:09:02.850Z,6.23
2023-02-13T10:12:06.052Z,6.31
2023-02-13T10:15:32.782Z,6.41
2023-02-13T10:18:16.588Z,6.54
2023-02-13T10:21:06.710Z,6.51
2023-02-13T10:24:22.267Z,6.56
2023-02-13T10:30:12.703Z,6.67
2023-02-13T10:33:29.038Z,6.74
2023-02-13T10:36:35.217Z,6.87
2023-02-13T10:39:39.371Z,7.02
2023-02-13T10:43:04.599Z,7.63
2023-02-13T10:46:07.531Z,8.64
2023-02-13T10:49:46.779Z,9.49
2023-02-13T10:53:02.730Z,10.72
2023-02-13T10:55:53.776Z,11.41
2023-02-13T10:59:09.222Z,12.17
2023-02-13T11:02:05.003Z,12.78
2023-02-13T11:04:35.081Z,13.28
2023-02-13T11:07:39.822Z,13.72
2023-02-13T11:10:37.270Z,14.14
2023-02-13T11:13:27.411Z,14.30
2023-02-13T11:16:22.677Z,14.38
2023-02-13T11:21:38.930Z,14.28
2023-02-13T11:24:28.716Z,14.25
2023-02-13T11:27:22.163Z,14.27
2023-02-13T11:30:26.312Z,14.35
2023-02-13T11:33:26.022Z,14.41
2023-02-13T11:36:44.208Z,14.37
2023-02-13T11:39:28.226Z,14.40
2023-02-13T11:41:57.634Z,14.39
2023-02-13T11:45:26.118Z,14.33
2023-02-13T11:48:01.004Z,14.29
2023-02-13T11:50:39.060Z,14.33
2023-02-13T11:53:25.441Z,14.30
2023-02-13T11:56:18.287Z,14.27
2023-02-13T11:59:04.658Z,14.34
2023-02-13T12:01:33.076Z,14.29
2023-02-13T12:04:32.769Z,14.27
2023-02-13T12:07:31.532Z,14.30
2023-02-13T12:10:29.589Z,14.42
2023-02-13T12:13:29.867Z,14.41
2023-02-13T12:16:50.718Z,14.38
2023-02-13T12:19:52.106Z,14.39
2023-02-13T12:23:12.617Z,14.60
2023-02-13T12:26:32.756Z,14.63
2023-02-13T12:34:15.608Z,14.65
2023-02-13T12:37:21.383Z,14.93
2023-02-13T12:40:24.747Z,15.17
2023-02-13T12:43:51.226Z,15.19
2023-02-13T12:47:21.508Z,15.18
2023-02-13T12:50:33.640Z,15.05
2023-02-13T12:53:14.124Z,14.82
2023-02-13T12:56:16.985Z,14.58
2023-02-13T12:59:31.347Z,14.45
2023-02-13T13:02:15.709Z,14.76
2023-02-13T13:05:41.019Z,15.18
2023-02-13T13:08:55.629Z,15.49
2023-02-13T13:12:33.118Z,15.55
2023-02-13T13:15:42.350Z,15.53
2023-02-13T13:19:24.376Z,16.10
2023-02-13T13:23:07.244Z,16.83
2023-02-13T13:26:25.098Z,17.25
2023-02-13T13:29:02.602Z,17.29
2023-02-13T13:31:32.016Z,17.23
2023-02-13T13:34:19.036Z,17.27
2023-02-13T13:37:23.091Z,17.37
2023-02-13T13:40:40.073Z,17.74
2023-02-13T13:44:37.814Z,18.25
2023-02-13T13:48:10.193Z,18.81
2023-02-13T13:50:46.547Z,19.05
2023-02-13T13:53:26.888Z,19.09
2023-02-13T13:56:19.208Z,19.11
2023-02-13T13:59:00.223Z,18.73
2023-02-13T14:01:31.853Z,18.41
2023-02-13T14:04:32.379Z,18.09
2023-02-13T14:07:03.658Z,18.08
2023-02-13T14:09:51.695Z,17.97
2023-02-13T14:12:25.266Z,17.41
2023-02-13T14:15:05.563Z,16.93
2023-02-13T14:17:48.630Z,16.71
2023-02-13T14:20:49.653Z,16.91
2023-02-13T14:23:49.772Z,17.31
2023-02-13T14:26:17.115Z,17.77
2023-02-13T14:28:53.791Z,18.34
2023-02-13T14:31:39.463Z,18.73
2023-02-13T14:34:32.583Z,19.01
2023-02-13T14:37:28.013Z,18.95
2023-02-13T14:40:20.077Z,19.06
2023-02-13T14:43:33.636Z,18.98
2023-02-13T14:46:43.659Z,18.58
2023-02-13T14:49:40.053Z,18.63
2023-02-13T14:52:36.319Z,18.66
2023-02-13T14:55:39.191Z,18.65
2023-02-13T14:58:29.420Z,18.60
2023-02-13T15:04:47.002Z,18.42
2023-02-13T15:07:27.980Z,18.09
2023-02-13T15:10:40.842Z,17.77
2023-02-13T15:13:29.446Z,17.58
2023-02-13T15:16:16.899Z,17.62
2023-02-13T15:18:55.449Z,17.45
2023-02-13T15:21:37.601Z,17.21
2023-02-13T15:24:12.989Z,16.92
2023-02-13T15:26:44.082Z,16.98
2023-02-13T15:29:29.244Z,17.01
2023-02-13T15:32:05.337Z,16.65
2023-02-13T15:34:37.815Z,16.37
2023-02-13T15:37:06.955Z,16.09
2023-02-13T15:39:34.393Z,16.03
2023-02-13T15:42:06.002Z,16.16
2023-02-13T15:44:49.957Z,16.52
2023-02-13T15:47:34.490Z,16.91
2023-02-13T15:50:18.857Z,17.14
2023-02-13T15:52:51.562Z,17.24
2023-02-13T15:55:31.514Z,16.97
2023-02-13T15:58:04.962Z,16.70
2023-02-13T16:00:43.463Z,16.61
2023-02-13T16:06:07.848Z,16.22
2023-02-13T16:08:45.404Z,15.94
2023-02-13T16:11:46.864Z,15.48
2023-02-13T16:15:07.006Z,15.25
2023-02-13T16:17:40.095Z,14.90
2023-02-13T16:20:16.533Z,14.57
2023-02-13T16:22:51.705Z,14.43
2023-02-13T16:25:45.985Z,14.18
2023-02-13T16:28:38.858Z,13.84
2023-02-13T16:31:15.904Z,13.53
2023-02-13T16:33:55.528Z,13.21
2023-02-13T16:36:34.547Z,12.91
2023-02-13T16:39:20.848Z,12.62
2023-02-13T16:41:50.799Z,12.37
2023-02-13T16:44:33.551Z,12.13
2023-02-13T16:47:23.181Z,11.94
2023-02-13T16:49:58.095Z,11.75
2023-02-13T16:52:27.665Z,11.60
2023-02-13T16:55:06.577Z,11.46
2023-02-13T16:57:41.276Z,11.35
2023-02-13T17:00:27.788Z,11.22
2023-02-13T17:02:57.557Z,11.11
2023-02-13T17:05:32.568Z,10.99
2023-02-13T17:08:04.375Z,10.88
2023-02-13T17:10:37.512Z,10.76
2023-02-13T17:13:13.141Z,10.67
2023-02-13T17:15:48.495Z,10.55
2023-02-13T17:18:23.398Z,10.46
2023-02-13T17:20:52.514Z,10.36
2023-02-13T17:23:25.920Z,10.27
2023-02-13T17:25:54.742Z,10.21
2023-02-13T17:28:29.713Z,10.15
2023-02-13T17:31:01.416Z,10.05
2023-02-13T17:33:34.280Z,10.00
2023-02-13T17:36:04.205Z,9.93
2023-02-13T17:38:35.901Z,9.85
2023-02-13T17:41:17.852Z,9.76
2023-02-13T17:43:47.121Z,9.70
2023-02-13T17:46:17.056Z,9.62
2023-02-13T17:48:44.532Z,9.56
2023-02-13T17:51:18.522Z,9.49
2023-02-13T17:53:54.062Z,9.41
2023-02-13T17:56:28.460Z,9.38
2023-02-13T17:59:01.843Z,9.30
2023-02-13T18:01:29.361Z,9.24
2023-02-13T18:04:03.807Z,9.20
2023-02-13T18:06:33.957Z,9.14
2023-02-13T18:09:01.587Z,9.12
2023-02-13T18:11:37.929Z,9.08
2023-02-13T18:14:05.362Z,9.02
2023-02-13T18:16:32.996Z,8.97
2023-02-13T18:19:00.586Z,8.92
2023-02-13T18:21:28.345Z,8.89
2023-02-13T18:23:55.694Z,8.83
2023-02-13T18:26:25.442Z,8.76
2023-02-13T18:28:53.991Z,8.73
2023-02-13T18:31:22.988Z,8.68
2023-02-13T18:33:51.494Z,8.63
2023-02-13T18:36:23.860Z,8.58
2023-02-13T18:38:55.556Z,8.53
2023-02-13T18:41:26.329Z,8.50
2023-02-13T18:43:59.029Z,8.46
2023-02-13T18:46:27.072Z,8.43
2023-02-13T18:48:55.602Z,8.40
2023-02-13T18:51:26.029Z,8.38
2023-02-13T18:54:01.582Z,8.36
2023-02-13T18:56:28.834Z,8.32
2023-02-13T18:59:04.841Z,8.29
2023-02-13T19:01:32.257Z,8.24
2023-02-13T19:04:04.392Z,8.19
2023-02-13T19:06:33.907Z,8.17
2023-02-13T19:09:06.659Z,8.13
2023-02-13T19:11:38.632Z,8.09
2023-02-13T19:14:07.384Z,8.06
2023-02-13T19:16:39.772Z,8.02
2023-02-13T19:19:09.270Z,8.01
2023-02-13T19:21:40.567Z,7.99
2023-02-13T19:24:15.423Z,7.95
2023-02-13T19:26:43.632Z,7.93
2023-02-13T19:29:11.018Z,7.88
2023-02-13T19:31:42.523Z,7.85
2023-02-13T19:34:10.418Z,7.81
2023-02-13T19:36:39.387Z,7.75
2023-02-13T19:39:09.314Z,7.73
2023-02-13T19:41:37.469Z,7.64
2023-02-13T19:44:06.131Z,7.64
2023-02-13T19:46:36.376Z,7.58
2023-02-13T19:49:06.958Z,7.52
2023-02-13T19:51:40.521Z,7.48
2023-02-13T19:54:11.477Z,7.43
2023-02-13T19:56:41.125Z,7.39
2023-02-13T19:59:15.826Z,7.34
2023-02-13T20:01:43.541Z,7.29
2023-02-13T20:04:11.893Z,7.26
2023-02-13T20:06:43.921Z,7.22
2023-02-13T20:09:16.829Z,7.21
2023-02-13T20:11:45.545Z,7.18
2023-02-13T20:14:15.684Z,7.15
2023-02-13T20:16:46.338Z,7.15
2023-02-13T20:19:14.447Z,7.12
2023-02-13T20:21:45.094Z,7.11
2023-02-13T20:24:17.189Z,7.08
2023-02-13T20:26:44.657Z,7.06
2023-02-13T20:29:13.053Z,7.04
2023-02-13T20:31:43.086Z,7.03
2023-02-13T20:34:12.557Z,7.00
2023-02-13T20:36:41.734Z,6.97
2023-02-13T20:39:09.854Z,6.94
2023-02-13T20:41:43.543Z,6.96
2023-02-13T20:44:20.620Z,6.93
2023-02-13T20:46:50.959Z,6.91
2023-02-13T20:49:26.444Z,6.90
2023-02-13T20:51:54.805Z,6.87
2023-02-13T20:54:24.317Z,6.85
2023-02-13T20:56:52.128Z,6.82
2023-02-13T20:59:19.952Z,6.77
2023-02-13T21:01:50.974Z,6.73
2023-02-13T21:04:20.389Z,6.69
2023-02-13T21:06:49.621Z,6.66
2023-02-13T21:09:17.299Z,6.64
2023-02-13T21:11:45.122Z,6.62
2023-02-13T21:14:14.223Z,6.57
2023-02-13T21:16:43.858Z,6.52
2023-02-13T21:19:28.999Z,6.48
2023-02-13T21:22:10.943Z,6.42
2023-02-13T21:24:43.661Z,6.40
2023-02-13T21:27:12.719Z,6.35
2023-02-13T21:29:40.153Z,6.32
2023-02-13T21:32:07.699Z,6.28
2023-02-13T21:34:36.206Z,6.22
2023-02-13T21:37:03.594Z,6.18
2023-02-13T21:39:31.024Z,6.16
2023-02-13T21:41:58.296Z,6.10
2023-02-13T21:44:25.683Z,6.08
2023-02-13T21:46:54.261Z,6.04
2023-02-13T21:49:36.437Z,6.00
2023-02-13T21:52:04.320Z,5.97
2023-02-13T21:54:33.236Z,5.92
2023-02-13T21:57:10.543Z,5.86
2023-02-13T21:59:39.683Z,5.85
2023-02-13T22:02:11.482Z,5.80
2023-02-13T22:04:43.426Z,5.73
2023-02-13T22:07:11.408Z,5.72
2023-02-13T22:09:38.833Z,5.66
2023-02-13T22:12:06.877Z,5.59
2023-02-13T22:14:34.182Z,5.52
2023-02-13T22:17:01.755Z,5.43
2023-02-13T22:19:43.320Z,5.35
2023-02-13T22:22:10.679Z,5.29
2023-02-13T22:24:38.620Z,5.24
2023-02-13T22:27:08.952Z,5.16
2023-02-13T22:29:41.083Z,5.09
2023-02-13T22:32:08.792Z,5.04
2023-02-13T22:34:43.757Z,5.03
2023-02-13T22:37:12.691Z,5.01
2023-02-13T22:39:43.398Z,4.99
2023-02-13T22:42:14.294Z,4.93
2023-02-13T22:44:47.143Z,4.93
2023-02-13T22:47:14.675Z,4.91
2023-02-13T22:49:43.295Z,4.90
2023-02-13T22:52:12.492Z,4.88
2023-02-13T22:54:42.152Z,4.86
2023-02-13T22:57:18.294Z,4.82
2023-02-13T22:59:46.647Z,4.81
2023-02-13T23:02:14.072Z,4.81
2023-02-13T23:04:41.586Z,4.80
2023-02-13T23:07:09.102Z,4.81
2023-02-13T23:09:36.354Z,4.81
2023-02-13T23:12:22.554Z,4.80
2023-02-13T23:14:53.189Z,4.74
2023-02-13T23:17:39.427Z,4.76
2023-02-13T23:20:08.442Z,4.70
2023-02-13T23:22:36.645Z,4.70
2023-02-13T23:25:07.172Z,4.67
2023-02-13T23:27:35.982Z,4.66
2023-02-13T23:30:07.036Z,4.62
2023-02-13T23:32:37.818Z,4.59
2023-02-13T23:35:08.217Z,4.56
2023-02-13T23:37:36.456Z,4.52
2023-02-13T23:40:06.811Z,4.52
2023-02-13T23:42:34.534Z,4.48
2023-02-13T23:45:03.775Z,4.47
2023-02-13T23:47:32.079Z,4.42
2023-02-13T23:49:59.975Z,4.36
2023-02-13T23:52:33.418Z,4.29
2023-02-13T23:55:03.699Z,4.20
2023-02-13T23:57:36.707Z,4.13
